Aviation Digital Data Service (ADDS)

Output produced by METARs form (0633 UTC 21 January 2019)
found at http://www.aviationweather.gov/metar/data/
 
Forecast for: ZSPD (SHANGHAI/PUDONG , CN)
Text: TAF ZSPD 210320Z 2106/2206 29004MPS 5000 BR SCT030 TX10/2106Z TN00/2121Z
Forecast period: 0600 UTC 21 January 2019 to 0600 UTC 22 January 2019
Forecast type: FROM: standard forecast or significant change
Winds: from the WNW (290 degrees) at 9 MPH (8 knots; 4.1 m/s)
Visibility: 3 miles (5 km)
Ceiling: at least 12,000 feet AGL
Clouds: scattered clouds at 3000 feet AGL
Weather: BR  (mist)